Harwood, ND

10:26 PM CST on December 09, 2016 (GMT -0600)
Harwood Triangle | | Change Station
Active Advisory: Wind Chill Advisory

Elev 879 ft 46.98 °N, 96.88 °W | Updated 24 seconds ago

Mostly Cloudy
Mostly Cloudy
-7.0 °F
Feels Like -7 °F
N
1.0
Wind Variable Wind from NNW
Gusts 3.0 mph

Today
High -- | Low -- °F
--% Chance of Precip.
Yesterday
High -- | Low -- °F
Precip. -- in
Pressure 30.65 in
Visibility 10.0 miles
Clouds Overcast 2200 ft
Windchill -7 °F
Dew Point -13 °F
Humidity 76%
Rainfall 0.00 in
Snow Depth Not available.
8:01 AM 4:38 PM
Waxing Gibbous, 80% visible
METAR KFAR 100353Z 30009KT 10SM OVC022 M20/M24 A3057 RMK AO2 SLP378 T12001244
Pressure 30.65 in
Visibility 10.0 miles
Clouds Overcast 2200 ft
Windchill -7 °F
Dew Point -13 °F
Humidity 76%
Rainfall 0.00 in
Snow Depth Not available.
8:01 AM 4:38 PM
Waxing Gibbous, 80% visible
METAR KFAR 100353Z 30009KT 10SM OVC022 M20/M24 A3057 RMK AO2 SLP378 T12001244

10-Day Weather Forecast

Almanac

Astronomy

Dec. 09, 2016 Rise Set
Actual Time
Civil Twilight
Nautical Twilight
Astronomical Twilight
Moon
Length of Visible Light
Length of Day
Tomorrow will be .
, % of the Moon is Illuminated

Today's Extremes

State Highs State Lows

Community

WunderPhotos

Upload Photos

1,956,529 photos uploaded!

WunderBlog® & News

Nearby

Air Quality

  Air Quality AQ Index Pollutant
Not available.

Snow Depth

Station Depth Elevation

Earthquake Activity

City Distance Mag. Time & Date
Minimum magnitude displayed is 2.5.

Coastal Water Temperatures

Place Temperature

Stations

Nearby Weather Stations

Station Location Temp. Windchill Dew Point Humidity Wind Precip. Elev Updated Type
                   

Watches & Warnings

Wind Chill Advisory
Issued: 2:59 PM CST Dec. 9, 2016 – National Weather Service

... Wind Chill Advisory in effect from 9 PM this evening to noon
CST Saturday...

The National Weather Service in Grand Forks has issued a Wind
Chill Advisory... which is in effect from 9 PM this evening to
noon CST Saturday.

* Wind chill values... expect wind chills to range from 20 below
zero to 30 below zero between 9 PM this evening and noon
Saturday... with the coldest wind chills occurring around 2 am
Saturday.

* Impacts... the cold wind chills will cause frostbite in as
little as 30 minutes to exposed skin.

Precautionary/preparedness actions...

A Wind Chill Advisory means that cold air and the wind will
combine to create low wind chills. Frost bite and hypothermia can
occur if precautions are not taken. Make sure you wear a hat and
gloves.